createdAt,value
2022-12-03T00:00:14.927Z,15.13
2022-12-03T00:02:43.469Z,15.73
2022-12-03T00:05:11.860Z,14.60
2022-12-03T00:07:41.587Z,15.77
2022-12-03T00:10:10.439Z,14.23
2022-12-03T00:12:38.706Z,15.20
2022-12-03T00:15:08.370Z,14.00
2022-12-03T00:17:36.355Z,15.07
2022-12-03T00:20:07.876Z,15.23
2022-12-03T00:22:38.454Z,15.38
2022-12-03T00:25:07.569Z,14.70
2022-12-03T00:27:35.840Z,15.18
2022-12-03T00:30:06.000Z,15.70
2022-12-03T00:32:34.807Z,13.60
2022-12-03T00:35:02.894Z,14.02
2022-12-03T00:37:31.577Z,14.07
2022-12-03T00:40:06.121Z,15.05
2022-12-03T00:42:38.564Z,13.52
2022-12-03T00:45:09.114Z,13.30
2022-12-03T00:47:39.729Z,14.68
2022-12-03T00:50:08.669Z,13.45
2022-12-03T00:52:36.650Z,15.25
2022-12-03T00:55:05.430Z,13.43
2022-12-03T00:57:33.591Z,13.95
2022-12-03T01:00:01.608Z,13.82
2022-12-03T01:02:29.856Z,13.43
2022-12-03T01:04:58.096Z,15.27
2022-12-03T01:07:26.398Z,14.38
2022-12-03T01:09:54.472Z,14.23
2022-12-03T01:12:22.682Z,13.07
2022-12-03T01:14:53.648Z,15.10
2022-12-03T01:17:22.567Z,14.07
2022-12-03T01:19:52.904Z,12.95
2022-12-03T01:22:21.161Z,14.55
2022-12-03T01:24:49.292Z,14.30
2022-12-03T01:27:17.464Z,14.65
2022-12-03T01:29:45.508Z,12.88
2022-12-03T01:32:18.550Z,15.75
2022-12-03T01:34:51.804Z,12.60
2022-12-03T01:37:23.603Z,14.57
2022-12-03T01:39:52.948Z,14.55
2022-12-03T01:42:37.614Z,12.90
2022-12-03T01:45:07.738Z,13.88
2022-12-03T01:47:38.300Z,14.48
2022-12-03T01:50:15.763Z,14.20
2022-12-03T01:52:44.560Z,14.10
2022-12-03T01:55:20.196Z,14.95
2022-12-03T01:57:53.386Z,14.48
2022-12-03T02:00:25.352Z,14.38
2022-12-03T02:03:04.525Z,15.10
2022-12-03T02:05:34.452Z,13.68
2022-12-03T02:08:02.796Z,14.77
2022-12-03T02:10:38.054Z,14.75
2022-12-03T02:13:10.269Z,14.07
2022-12-03T02:15:40.919Z,13.30
2022-12-03T02:18:10.378Z,14.20
2022-12-03T02:21:13.851Z,13.65
2022-12-03T02:24:08.222Z,13.18
2022-12-03T02:29:26.367Z,13.60
2022-12-03T02:31:54.561Z,14.77
2022-12-03T02:34:43.739Z,13.93
2022-12-03T02:37:17.325Z,14.60
2022-12-03T02:39:59.246Z,13.07
2022-12-03T02:45:21.810Z,12.55
2022-12-03T02:47:56.054Z,14.27
2022-12-03T02:50:31.992Z,13.88
2022-12-03T02:53:06.989Z,14.45
2022-12-03T02:55:37.383Z,14.93
2022-12-03T02:58:06.455Z,15.25
2022-12-03T03:00:36.308Z,14.40
2022-12-03T03:03:06.731Z,16.40
2022-12-03T03:05:38.651Z,14.23
2022-12-03T03:08:08.601Z,14.80
2022-12-03T03:10:39.433Z,15.70
2022-12-03T03:13:14.096Z,14.90
2022-12-03T03:15:43.016Z,13.80
2022-12-03T03:18:13.538Z,14.77
2022-12-03T03:20:42.774Z,13.90
2022-12-03T03:23:21.911Z,14.50
2022-12-03T03:26:09.616Z,14.60
2022-12-03T03:28:44.907Z,16.25
2022-12-03T03:31:18.182Z,15.10
2022-12-03T03:33:49.747Z,14.45
2022-12-03T03:36:22.132Z,12.55
2022-12-03T03:38:50.510Z,15.25
2022-12-03T03:41:20.715Z,14.40
2022-12-03T03:43:50.244Z,14.32
2022-12-03T03:46:20.520Z,14.73
2022-12-03T03:48:51.787Z,13.38
2022-12-03T03:51:20.453Z,15.55
2022-12-03T03:53:49.973Z,15.10
2022-12-03T03:56:20.932Z,14.10
2022-12-03T03:58:49.155Z,15.70
2022-12-03T04:01:18.405Z,17.38
2022-12-03T04:03:47.083Z,16.13
2022-12-03T04:06:15.562Z,14.75
2022-12-03T04:08:43.505Z,17.00
2022-12-03T04:11:30.487Z,15.77
2022-12-03T04:13:58.789Z,16.88
2022-12-03T04:16:26.744Z,15.85
2022-12-03T04:18:55.012Z,16.80
2022-12-03T04:21:42.797Z,16.15
2022-12-03T04:24:12.378Z,15.55
2022-12-03T04:26:59.389Z,16.83
2022-12-03T04:29:27.461Z,15.70
2022-12-03T04:32:14.384Z,17.00
2022-12-03T04:35:01.564Z,14.85
2022-12-03T04:37:29.869Z,16.73
2022-12-03T04:39:57.878Z,16.13
2022-12-03T04:42:28.909Z,16.75
2022-12-03T04:45:01.724Z,16.88
2022-12-03T04:47:33.220Z,17.30
2022-12-03T04:50:07.754Z,16.85
2022-12-03T04:52:38.311Z,15.13
2022-12-03T04:55:06.774Z,16.58
2022-12-03T04:57:34.692Z,17.23
2022-12-03T05:00:04.656Z,16.63
2022-12-03T05:02:32.723Z,17.42
2022-12-03T05:05:00.682Z,17.02
2022-12-03T05:07:29.079Z,17.00
2022-12-03T05:09:57.283Z,17.38
2022-12-03T05:12:25.381Z,17.27
2022-12-03T05:14:59.352Z,18.30
2022-12-03T05:17:27.546Z,18.77
2022-12-03T05:20:14.484Z,9.13
2022-12-03T05:22:42.532Z,19.15
2022-12-03T05:25:10.822Z,18.25
2022-12-03T05:27:39.274Z,17.13
2022-12-03T05:30:08.349Z,18.60
2022-12-03T05:32:36.463Z,19.33
2022-12-03T05:35:05.292Z,19.13
2022-12-03T05:37:33.324Z,17.92
2022-12-03T05:40:01.177Z,18.60
2022-12-03T05:42:48.165Z,19.52
2022-12-03T05:45:16.515Z,20.23
2022-12-03T05:47:44.603Z,19.67
2022-12-03T05:50:13.255Z,20.33
2022-12-03T05:52:41.385Z,20.27
2022-12-03T05:55:10.663Z,20.20
2022-12-03T05:57:39.770Z,16.42
2022-12-03T06:00:20.160Z,20.15
2022-12-03T06:02:48.524Z,19.92
2022-12-03T06:05:19.595Z,19.17
2022-12-03T06:07:50.655Z,18.88
2022-12-03T06:10:25.197Z,20.58
2022-12-03T06:12:53.663Z,21.10
2022-12-03T06:15:22.488Z,22.25
2022-12-03T06:17:54.571Z,19.83
2022-12-03T06:20:29.665Z,19.75
2022-12-03T06:22:59.991Z,20.02
2022-12-03T06:25:28.161Z,18.60
2022-12-03T06:28:00.959Z,20.67
2022-12-03T06:30:34.725Z,21.00
2022-12-03T06:33:02.905Z,20.88
2022-12-03T06:35:33.497Z,20.45
2022-12-03T06:38:01.644Z,20.40
2022-12-03T06:40:29.659Z,20.75
2022-12-03T06:42:58.317Z,22.25
2022-12-03T06:45:26.468Z,22.02
2022-12-03T06:47:54.380Z,19.92
2022-12-03T06:50:22.862Z,17.83
2022-12-03T06:52:52.144Z,21.33
2022-12-03T06:55:23.027Z,21.20
2022-12-03T06:57:51.441Z,23.33
2022-12-03T07:00:20.344Z,19.85
2022-12-03T07:02:49.878Z,22.17
2022-12-03T07:05:18.215Z,21.75
2022-12-03T07:07:52.244Z,21.23
2022-12-03T07:10:21.102Z,21.25
2022-12-03T07:12:49.236Z,22.50
2022-12-03T07:15:17.438Z,21.15
2022-12-03T07:17:45.743Z,24.13
2022-12-03T07:20:14.165Z,23.02
2022-12-03T07:22:42.224Z,21.52
2022-12-03T07:25:11.490Z,22.77
2022-12-03T07:27:39.578Z,22.58
2022-12-03T07:30:09.213Z,22.85
2022-12-03T07:32:37.520Z,21.85
2022-12-03T07:35:07.659Z,20.60
2022-12-03T07:37:37.889Z,21.85
2022-12-03T07:40:06.844Z,21.35
2022-12-03T07:42:34.901Z,22.98
2022-12-03T07:45:03.772Z,23.25
2022-12-03T07:47:32.298Z,21.67
2022-12-03T07:50:00.314Z,21.92
2022-12-03T07:52:28.543Z,22.05
2022-12-03T07:54:57.288Z,21.52
2022-12-03T07:57:25.311Z,20.50
2022-12-03T07:59:53.698Z,21.95
2022-12-03T08:02:22.135Z,20.83
2022-12-03T08:04:50.283Z,22.10
2022-12-03T08:07:18.551Z,23.00
2022-12-03T08:09:46.831Z,23.77
2022-12-03T08:12:42.710Z,23.15
2022-12-03T08:15:26.208Z,22.48
2022-12-03T08:18:00.760Z,23.05
2022-12-03T08:20:38.727Z,22.92
2022-12-03T08:23:34.626Z,20.48
2022-12-03T08:26:21.282Z,23.98
2022-12-03T08:28:50.144Z,22.75
2022-12-03T08:31:29.355Z,23.60
2022-12-03T08:34:18.899Z,24.30
2022-12-03T08:37:21.728Z,21.90
2022-12-03T08:39:54.668Z,22.95
2022-12-03T08:42:43.142Z,22.98
2022-12-03T08:45:29.814Z,21.55
2022-12-03T08:52:00.434Z,19.67
2022-12-03T08:54:28.805Z,20.42
2022-12-03T09:01:19.172Z,19.40
2022-12-03T09:03:54.828Z,17.67
2022-12-03T09:06:23.767Z,18.95
2022-12-03T09:08:52.155Z,20.30
2022-12-03T09:11:20.375Z,17.63
2022-12-03T09:13:49.624Z,17.45
2022-12-03T09:16:17.843Z,16.48
2022-12-03T09:18:46.984Z,18.73
2022-12-03T09:21:15.524Z,15.38
2022-12-03T09:23:43.691Z,16.20
2022-12-03T09:26:12.774Z,18.98
2022-12-03T09:28:40.913Z,15.95
2022-12-03T09:31:09.242Z,20.70
2022-12-03T09:33:37.291Z,24.17
2022-12-03T09:36:06.867Z,23.63
2022-12-03T09:41:12.613Z,28.20
2022-12-03T09:44:03.311Z,25.75
2022-12-03T09:46:30.729Z,21.58
2022-12-03T09:48:59.074Z,24.23
2022-12-03T09:51:39.520Z,14.20
2022-12-03T09:54:08.313Z,18.15
2022-12-03T09:56:38.402Z,17.50
2022-12-03T09:59:17.147Z,17.67
2022-12-03T10:01:45.923Z,16.25
2022-12-03T10:04:14.212Z,18.20
2022-12-03T10:06:46.038Z,16.60
2022-12-03T10:09:27.560Z,18.65
2022-12-03T10:12:00.196Z,18.17
2022-12-03T10:14:31.334Z,18.52
2022-12-03T10:17:00.322Z,11.80
2022-12-03T10:19:33.180Z,12.57
2022-12-03T10:22:05.889Z,17.98
2022-12-03T10:24:37.073Z,18.15
2022-12-03T10:27:29.563Z,14.00
2022-12-03T10:33:21.670Z,13.00
2022-12-03T10:35:50.128Z,17.80
2022-12-03T10:38:18.211Z,15.57
2022-12-03T10:40:47.482Z,13.90
2022-12-03T10:43:18.641Z,15.50
2022-12-03T10:46:13.581Z,15.60
2022-12-03T10:48:44.420Z,15.68
2022-12-03T10:51:22.586Z,16.05
2022-12-03T10:53:51.593Z,17.63
2022-12-03T10:56:26.247Z,17.85
2022-12-03T10:58:55.375Z,18.08
2022-12-03T11:01:26.686Z,13.88
2022-12-03T11:04:01.270Z,17.60
2022-12-03T11:06:40.805Z,17.17
2022-12-03T11:09:44.006Z,19.67
2022-12-03T11:13:27.244Z,17.70
2022-12-03T11:16:03.218Z,19.48
2022-12-03T11:18:38.200Z,14.90
2022-12-03T11:21:07.658Z,19.27
2022-12-03T11:23:47.917Z,17.45
2022-12-03T11:26:19.501Z,14.63
2022-12-03T11:28:48.045Z,19.35
2022-12-03T11:31:53.031Z,18.88
2022-12-03T11:37:16.585Z,20.48
2022-12-03T11:39:58.275Z,15.93
2022-12-03T11:46:10.654Z,17.20
2022-12-03T11:48:46.209Z,18.48
2022-12-03T11:51:23.446Z,21.98
2022-12-03T11:53:58.835Z,17.50
2022-12-03T12:00:28.681Z,20.80
2022-12-03T12:02:59.938Z,20.15
2022-12-03T12:05:34.061Z,22.02
2022-12-03T12:08:03.668Z,19.02
2022-12-03T12:10:58.319Z,15.05
2022-12-03T12:13:34.103Z,16.58
2022-12-03T12:16:09.073Z,20.23
2022-12-03T12:18:45.900Z,23.20
2022-12-03T12:22:00.822Z,13.02
2022-12-03T12:24:43.358Z,21.88
2022-12-03T12:27:17.352Z,18.90
2022-12-03T12:30:10.468Z,20.58
2022-12-03T12:32:52.658Z,16.38
2022-12-03T12:35:42.705Z,22.08
2022-12-03T12:38:18.192Z,20.20
2022-12-03T12:40:51.934Z,22.65
2022-12-03T12:43:32.788Z,23.90
2022-12-03T12:46:46.597Z,17.27
2022-12-03T12:49:15.838Z,22.08
2022-12-03T12:52:40.069Z,17.60
2022-12-03T12:55:11.043Z,21.35
2022-12-03T12:57:40.986Z,24.25
2022-12-03T13:00:20.779Z,19.38
2022-12-03T13:03:06.050Z,22.27
2022-12-03T13:05:59.786Z,21.85
2022-12-03T13:08:46.099Z,18.85
2022-12-03T13:11:53.691Z,24.98
2022-12-03T13:17:26.345Z,22.23
2022-12-03T13:27:34.211Z,19.40
2022-12-03T13:30:29.525Z,21.67
2022-12-03T13:33:00.294Z,20.17
2022-12-03T13:35:44.376Z,24.33
2022-12-03T13:38:26.835Z,26.02
2022-12-03T13:41:39.305Z,25.27
2022-12-03T13:44:22.805Z,23.40
2022-12-03T13:50:04.157Z,24.30
2022-12-03T13:52:34.840Z,20.50
2022-12-03T13:55:07.411Z,23.25
2022-12-03T13:57:35.786Z,22.15
2022-12-03T14:00:05.403Z,25.77
2022-12-03T14:02:42.375Z,24.48
2022-12-03T14:05:10.934Z,22.30
2022-12-03T14:07:39.672Z,22.80
2022-12-03T14:10:13.432Z,29.42
2022-12-03T14:12:49.673Z,27.42
2022-12-03T14:15:28.080Z,26.80
2022-12-03T14:18:04.657Z,26.00
2022-12-03T14:21:01.150Z,27.75
2022-12-03T14:23:29.244Z,30.02
2022-12-03T14:26:05.303Z,38.50
2022-12-03T14:28:35.223Z,33.33
2022-12-03T14:31:03.480Z,52.85
2022-12-03T14:33:33.306Z,37.10
2022-12-03T14:36:01.460Z,29.83
2022-12-03T14:38:30.298Z,27.25
2022-12-03T14:40:58.767Z,26.85
2022-12-03T14:43:44.220Z,25.27
2022-12-03T14:46:14.279Z,26.50
2022-12-03T14:48:44.253Z,24.58
2022-12-03T14:51:23.876Z,25.15
2022-12-03T14:53:57.786Z,24.67
2022-12-03T14:56:33.427Z,25.35
2022-12-03T14:59:01.565Z,27.83
2022-12-03T15:01:31.219Z,26.75
2022-12-03T15:04:01.596Z,25.00
2022-12-03T15:06:29.941Z,17.05
2022-12-03T15:08:58.156Z,23.48
2022-12-03T15:11:35.117Z,17.23
2022-12-03T15:14:47.936Z,22.38
2022-12-03T15:21:51.715Z,22.35
2022-12-03T15:24:30.780Z,22.80
2022-12-03T15:26:59.503Z,18.02
2022-12-03T15:29:27.606Z,19.52
2022-12-03T15:31:55.973Z,15.98
2022-12-03T15:34:34.500Z,18.00
2022-12-03T15:37:09.327Z,18.63
2022-12-03T15:39:44.995Z,19.52
2022-12-03T15:42:19.647Z,19.50
2022-12-03T15:44:48.541Z,16.23
2022-12-03T15:47:19.241Z,16.65
2022-12-03T15:49:49.192Z,18.10
2022-12-03T15:52:17.506Z,16.45
2022-12-03T15:54:57.730Z,17.25
2022-12-03T15:57:29.933Z,19.40
2022-12-03T15:59:58.370Z,16.92
2022-12-03T16:02:27.986Z,15.45
2022-12-03T16:05:08.340Z,18.52
2022-12-03T16:07:37.959Z,15.93
2022-12-03T16:10:14.075Z,15.57
2022-12-03T16:12:45.540Z,18.10
2022-12-03T16:15:27.210Z,19.42
2022-12-03T16:17:55.936Z,18.67
2022-12-03T16:20:27.095Z,21.80
2022-12-03T16:22:58.319Z,17.42
2022-12-03T16:25:34.898Z,19.95
2022-12-03T16:28:32.563Z,16.48
2022-12-03T16:31:02.949Z,17.42
2022-12-03T16:33:31.551Z,20.55
2022-12-03T16:36:07.185Z,20.58
2022-12-03T16:38:56.114Z,21.05
2022-12-03T16:41:54.171Z,21.35
2022-12-03T16:50:29.078Z,14.18
2022-12-03T16:55:48.614Z,15.68
2022-12-03T16:58:21.515Z,17.33
2022-12-03T17:00:50.854Z,19.05
2022-12-03T17:03:20.659Z,17.80
2022-12-03T17:05:49.913Z,19.13
2022-12-03T17:08:18.335Z,13.20
2022-12-03T17:10:46.673Z,20.90
2022-12-03T17:13:15.709Z,21.33
2022-12-03T17:15:44.209Z,18.00
2022-12-03T17:18:14.794Z,17.65
2022-12-03T17:20:43.887Z,16.45
2022-12-03T17:23:19.311Z,12.90
2022-12-03T17:25:48.300Z,18.60
2022-12-03T17:28:16.649Z,20.52
2022-12-03T17:30:47.237Z,15.63
2022-12-03T17:33:31.079Z,17.85
2022-12-03T17:35:59.328Z,17.40
2022-12-03T17:38:35.623Z,18.13
2022-12-03T17:41:07.828Z,21.38
2022-12-03T17:43:35.927Z,18.20
2022-12-03T17:46:05.614Z,16.05
2022-12-03T17:48:35.760Z,19.77
2022-12-03T17:51:03.805Z,14.05
2022-12-03T17:53:32.035Z,15.05
2022-12-03T17:56:00.249Z,13.95
2022-12-03T17:58:28.741Z,14.57
2022-12-03T18:01:02.155Z,14.75
2022-12-03T18:03:31.630Z,17.98
2022-12-03T18:05:59.894Z,21.23
2022-12-03T18:08:28.696Z,19.85
2022-12-03T18:10:59.648Z,16.90
2022-12-03T18:13:28.334Z,17.90
2022-12-03T18:15:59.682Z,18.85
2022-12-03T18:18:30.219Z,17.88
2022-12-03T18:21:02.319Z,18.83
2022-12-03T18:23:32.570Z,18.73
2022-12-03T18:26:02.157Z,18.15
2022-12-03T18:28:31.450Z,20.13
2022-12-03T18:31:00.702Z,20.38
2022-12-03T18:33:29.236Z,16.77
2022-12-03T18:35:59.787Z,14.98
2022-12-03T18:38:33.582Z,23.50
2022-12-03T18:41:02.100Z,13.75
2022-12-03T18:43:30.567Z,23.20
2022-12-03T18:45:58.934Z,17.77
2022-12-03T18:48:26.902Z,25.75
2022-12-03T18:50:56.852Z,16.15
2022-12-03T18:53:25.135Z,18.67
2022-12-03T18:55:53.118Z,17.38
2022-12-03T18:58:21.499Z,12.50
2022-12-03T19:00:50.107Z,17.08
2022-12-03T19:03:18.336Z,15.20
2022-12-03T19:05:46.514Z,15.43
2022-12-03T19:08:15.289Z,12.57
2022-12-03T19:10:44.407Z,15.18
2022-12-03T19:13:14.636Z,17.88
2022-12-03T19:15:42.744Z,16.40
2022-12-03T19:18:10.880Z,15.27
2022-12-03T19:20:44.527Z,16.02
2022-12-03T19:23:15.590Z,14.30
2022-12-03T19:25:55.890Z,13.80
2022-12-03T19:28:24.488Z,11.15
2022-12-03T19:31:02.837Z,15.77
2022-12-03T19:33:32.146Z,17.45
2022-12-03T19:36:01.724Z,17.33
2022-12-03T19:38:30.892Z,15.88
2022-12-03T19:41:06.607Z,22.60
2022-12-03T19:43:36.911Z,21.13
2022-12-03T19:46:08.560Z,25.20
2022-12-03T19:51:32.936Z,21.88
2022-12-03T19:53:57.360Z,28.48
2022-12-03T19:56:25.851Z,21.73
2022-12-03T19:58:55.842Z,17.90
2022-12-03T20:01:28.348Z,20.75
2022-12-03T20:03:59.534Z,20.17
2022-12-03T20:06:32.076Z,16.35
2022-12-03T20:09:04.819Z,13.52
2022-12-03T20:11:34.805Z,16.25
2022-12-03T20:14:07.901Z,14.95
2022-12-03T20:16:37.423Z,13.85
2022-12-03T20:19:08.399Z,18.60
2022-12-03T20:21:38.658Z,17.70
2022-12-03T20:24:13.141Z,16.40
2022-12-03T20:26:42.245Z,19.52
2022-12-03T20:29:10.663Z,15.50
2022-12-03T20:31:39.803Z,16.17
2022-12-03T20:34:10.388Z,14.88
2022-12-03T20:36:39.487Z,16.50
2022-12-03T20:39:11.897Z,14.90
2022-12-03T20:41:40.212Z,15.38
2022-12-03T20:44:08.413Z,16.83
2022-12-03T20:46:39.596Z,16.98
2022-12-03T20:49:08.133Z,15.18
2022-12-03T20:51:37.170Z,18.08
2022-12-03T20:54:05.819Z,18.33
2022-12-03T20:56:39.693Z,17.65
2022-12-03T20:59:12.631Z,11.93
2022-12-03T21:01:42.445Z,13.95
2022-12-03T21:04:16.600Z,19.05
2022-12-03T21:06:46.613Z,15.93
2022-12-03T21:09:16.160Z,20.48
2022-12-03T21:11:44.423Z,16.63
2022-12-03T21:14:12.561Z,12.05
2022-12-03T21:17:07.062Z,16.50
2022-12-03T21:19:35.007Z,13.82
2022-12-03T21:22:04.151Z,18.80
2022-12-03T21:24:32.291Z,12.55
2022-12-03T21:27:00.600Z,12.73
2022-12-03T21:29:28.986Z,11.95
2022-12-03T21:31:57.484Z,17.38
2022-12-03T21:34:27.387Z,14.88
2022-12-03T21:36:58.442Z,14.00
2022-12-03T21:39:26.886Z,13.90
2022-12-03T21:42:22.078Z,16.25
2022-12-03T21:44:43.569Z,17.98
2022-12-03T21:47:14.211Z,16.70
2022-12-03T21:49:43.003Z,15.27
2022-12-03T21:52:11.147Z,16.63
2022-12-03T21:54:39.337Z,15.20
2022-12-03T21:57:08.132Z,12.65
2022-12-03T21:59:36.552Z,16.63
2022-12-03T22:02:05.225Z,19.33
2022-12-03T22:04:33.493Z,14.95
2022-12-03T22:07:01.776Z,14.50
2022-12-03T22:09:32.253Z,13.68
2022-12-03T22:12:01.152Z,14.20
2022-12-03T22:14:30.110Z,14.10
2022-12-03T22:17:00.744Z,11.48
2022-12-03T22:19:29.004Z,15.73
2022-12-03T22:21:57.429Z,16.52
2022-12-03T22:24:28.429Z,18.77
2022-12-03T22:27:00.013Z,17.13
2022-12-03T22:29:28.290Z,14.65
2022-12-03T22:31:56.988Z,18.15
2022-12-03T22:34:25.340Z,18.55
2022-12-03T22:36:53.909Z,10.50
2022-12-03T22:39:21.926Z,12.65
2022-12-03T22:41:50.043Z,12.32
2022-12-03T22:44:18.537Z,10.40
2022-12-03T22:46:46.670Z,16.40
2022-12-03T22:49:14.950Z,12.07
2022-12-03T22:51:46.669Z,12.45
2022-12-03T22:54:19.305Z,12.63
2022-12-03T22:56:50.821Z,17.02
2022-12-03T22:59:19.248Z,12.10
2022-12-03T23:01:47.809Z,12.95
2022-12-03T23:04:16.192Z,10.20
2022-12-03T23:06:44.301Z,13.13
2022-12-03T23:09:12.608Z,17.48
2022-12-03T23:11:42.920Z,16.23
2022-12-03T23:14:12.465Z,9.57
2022-12-03T23:16:41.573Z,9.55
2022-12-03T23:19:09.673Z,8.27
2022-12-03T23:21:38.730Z,11.38
2022-12-03T23:24:07.949Z,10.35
2022-12-03T23:26:38.379Z,8.73
2022-12-03T23:29:08.564Z,12.93
2022-12-03T23:31:37.034Z,12.65
2022-12-03T23:34:05.854Z,13.32
2022-12-03T23:36:36.146Z,13.02
2022-12-03T23:39:05.781Z,10.18
2022-12-03T23:41:33.866Z,8.77
2022-12-03T23:44:01.820Z,9.88
2022-12-03T23:46:30.171Z,8.07
2022-12-03T23:48:59.636Z,10.93
2022-12-03T23:51:27.716Z,9.85
2022-12-03T23:53:57.020Z,8.80
2022-12-03T23:56:29.646Z,8.98
2022-12-03T23:58:58.537Z,9.25
